• Join FlightAware (Why Join?)
  • Login
  • US Flag 
03:32PM EST


 

Airport Tracker/Info


-or-


 

Live Flight TrackerFlight Track Log ✈ UAL326 ✈ 06-May-2013 ✈ KMCO - KIAD

Flight Track Log - Related Links

Times and Time Zones

All times are in EDT time to prevent confusion due to time zone crossing. See the UAL326 flight status page for this flight to view local times or setup timezone preferences in your user account.

Time Position Orientation Groundspeed Altitude Reporting Facility
EDT Latitude Longitude Course Direction KTS MPH feet Rate Location/Type
02:06PM 28.4000 -81.3000 350° North 167 192 700  Level Orlando TRACON
02:08PM 28.3333 -81.2278 136° Southeast 243 280 3,600 1,920 Climbing Jacksonville Center
02:09PM 28.8000 -81.3500 North  Level FlightAware Approximate
02:09PM 28.3678 -81.1492 64° Northeast 307 353 5,700  Level Jacksonville Center
02:10PM 28.9306 -81.3597 355° North  Level FlightAware Approximate
02:10PM 28.4386 -81.1528 357° North 284 327 8,700  Level Jacksonville Center
02:11PM 29.0605 -81.3788 350° North  Level FlightAware Approximate
02:11PM 28.5183 -81.1797 343° North 304 350 11,000  Level Jacksonville Center
02:12PM 28.6128 -81.2158 341° North 329 379 12,600 1,920 Climbing Jacksonville Center
02:14PM 28.8203 -81.2906 342° North 383 441 16,800 1,980 Climbing Jacksonville Center
02:15PM 28.9333 -81.3292 343° North 401 461 18,600 1,680 Climbing Jacksonville Center
02:17PM 29.1639 -81.3992 345° North 422 486 21,900 1,500 Climbing Jacksonville Center
02:18PM 29.2933 -81.4092 356° North 442 509 23,200 1,200 Climbing Jacksonville Center
02:20PM 29.5483 -81.4364 355° North 462 532 25,600 1,140 Climbing Jacksonville Center
02:22PM 29.8158 -81.4611 355° North 467 537 27,900 1,200 Climbing Jacksonville Center
02:24PM 30.0939 -81.4881 355° North 478 550 30,500 1,200 Climbing Jacksonville Center
02:25PM 30.2256 -81.4983 356° North 478 550 31,600 1,020 Climbing Jacksonville Center
02:27PM 30.4844 -81.4992 360° North 472 543 33,600 780 Climbing Jacksonville Center
02:28PM 30.6158 -81.4900 North 466 536 34,100 420 Climbing Jacksonville Center
02:30PM 30.8850 -81.4692 North 478 550 35,000 300 Climbing Jacksonville Center
02:31PM 31.0181 -81.4283 15° North 478 550 35,000  Level Jacksonville Center
02:32PM 31.1403 -81.3392 32° Northeast 490 564 35,000  Level Jacksonville Center
02:34PM 31.3279 -81.1990 33° Northeast  Level FlightAware Approximate
02:35PM 31.5061 -81.0700 33° Northeast 520 598 35,000  Level Jacksonville Center
02:36PM 31.6281 -80.9822 31° Northeast 512 589 35,000  Level Jacksonville Center
02:38PM 31.8758 -80.8033 31° Northeast 518 596 35,000  Level Jacksonville Center
02:40PM 32.0607 -80.6571 34° Northeast  Level FlightAware Approximate
02:42PM 32.3475 -80.4508 31° Northeast 518 596 35,000  Level Jacksonville Center
02:43PM 32.4647 -80.3614 33° Northeast 513 590 34,900  Descending Jacksonville Center
02:45PM 32.7178 -80.1717 32° Northeast 513 590 35,000  Climbing Jacksonville Center
02:46PM 32.8347 -80.0792 34° Northeast 513 590 34,900  Descending Jacksonville Center
02:47PM 32.7266 -80.1466 31° Northeast  Level FlightAware Approximate
02:48PM 33.0336 -79.8375 45° Northeast 508 585 35,000  Level Jacksonville Center
02:50PM 33.2147 -79.5731 51° Northeast 508 585 34,900 -60 Descending Jacksonville Center
02:51PM 33.3050 -79.4431 50° Northeast 503 579 34,900  Level Jacksonville Center
02:53PM 33.4444 -79.2322 52° Northeast  Level FlightAware Approximate
02:54PM 33.5692 -79.0489 52° Northeast 503 579 34,900  Level Jacksonville Center
02:55PM 33.6592 -78.9178 50° Northeast 508 585 35,000  Climbing Jacksonville Center
02:57PM 33.8278 -78.6614 52° Northeast 503 579 35,000 -60 Level Washington Center
02:58PM 33.8964 -78.5514 53° Northeast  Level FlightAware Approximate
02:59PM 33.9989 -78.4100 53° Northeast 515 593 34,900  Level Washington Center
03:00PM 34.1117 -78.3108 36° Northeast 501 577 35,000  Climbing Washington Center
03:01PM 34.2542 -78.2878 North 492 566 35,000 -60 Level Washington Center
03:03PM 34.5386 -78.2494 North 502 578 34,900  Descending Washington Center
03:05PM 34.8358 -78.2108 North 508 585 35,000  Climbing Washington Center
03:07PM 35.0620 -78.1716 North  Level Estimated
03:07PM 35.0997 -78.1689 North 503 579 35,000  Level Washington Center
03:08PM 35.2567 -78.1483 North 508 585 35,000  Level Washington Center
03:09PM 35.3989 -78.1275 North 503 579 35,000  Level Washington Center
03:10PM 35.5392 -78.1064 North 503 579 35,000 -540 Level Washington Center
03:12PM 35.8217 -78.0717 North 503 579 33,400 -1,380 Descending Washington Center
03:14PM 36.1042 -78.0317 North 503 579 29,600 -1,860 Descending Washington Center
03:15PM 36.2422 -78.0128 North 503 579 27,800 -660 Descending Washington Center
03:17PM 36.4720 -78.0000 North  Level FlightAware Approximate
03:18PM 36.6461 -77.9581 North 486 559 27,000  Level Washington Center
03:19PM 36.7819 -77.9361 North 486 559 27,000 -300 Level Washington Center
03:20PM 36.9158 -77.9169 North 486 559 26,500 -780 Descending Washington Center
03:21PM 37.0497 -77.9003 North 486 559 25,500 -1,200 Descending Washington Center
03:22PM 37.1794 -77.8806 North 481 554 24,100 -1,440 Descending Washington Center
03:23PM 37.3050 -77.8556 North 474 545 22,600 -1,080 Descending Washington Center
03:24PM 37.4189 -77.8014 21° North 446 513 22,000 -900 Descending Washington Center
03:25PM 37.5367 -77.7472 20° North 441 507 20,900 -1,980 Descending Washington Center
03:27PM 37.7594 -77.6433 20° North 428 493 16,200 -2,400 Descending Washington Center
03:28PM 37.8647 -77.5936 20° North 417 480 13,800 -2,340 Descending Washington Center
03:29PM 37.9675 -77.5461 20° North 399 459 11,600 -1,080 Descending Washington Center
03:31PM 38.2076 -77.4160 29° Northeast  Level FlightAware Approximate
03:31PM 38.2000 -77.4333 29° Northeast 300 345 9,900  Level Potomac TRACON
03:33PM 38.2869 -77.3853 23° Northeast 301 346 9,300 -1,200 Descending Washington Center
03:34PM 38.4500 -77.4000 356° North 304 350 6,300 -1,200 Descending Potomac TRACON
03:35PM 38.5167 -77.4333 339° North 268 308 5,900 -660 Descending Potomac TRACON
03:38PM 38.6500 -77.4333 360° North 201 231 4,400 -780 Descending Potomac TRACON
03:40PM 38.7500 -77.4333 360° North 178 205 2,900 -600 Descending Potomac TRACON
03:41PM 38.8000 -77.4333 360° North 180 207 2,700 -600 Descending Potomac TRACON
03:42PM 38.8500 -77.4333 360° North 154 177 1,800 -840 Descending Potomac TRACON
03:43PM 38.8833 -77.4333 360° North 137 158 1,100 -720 Descending Potomac TRACON